sensor_id;sensor_type;location;lat;lon;timestamp;P1;durP1;ratioP1;P2;durP2;ratioP2
10509;SDS011;5303;53.266;10.410;2023-12-07T00:00:48;44.73;;;22.50;;
10509;SDS011;5303;53.266;10.410;2023-12-07T00:03:14;40.17;;;21.37;;
10509;SDS011;5303;53.266;10.410;2023-12-07T00:05:40;48.03;;;23.00;;
10509;SDS011;5303;53.266;10.410;2023-12-07T00:08:05;47.67;;;23.10;;
10509;SDS011;5303;53.266;10.410;2023-12-07T00:10:34;45.73;;;22.23;;
10509;SDS011;5303;53.266;10.410;2023-12-07T00:13:00;49.77;;;24.67;;
10509;SDS011;5303;53.266;10.410;2023-12-07T00:15:25;46.33;;;24.03;;
10509;SDS011;5303;53.266;10.410;2023-12-07T00:17:50;44.23;;;21.97;;
10509;SDS011;5303;53.266;10.410;2023-12-07T00:20:15;47.20;;;23.30;;
10509;SDS011;5303;53.266;10.410;2023-12-07T00:22:40;49.67;;;24.47;;
10509;SDS011;5303;53.266;10.410;2023-12-07T00:25:06;49.30;;;22.13;;
10509;SDS011;5303;53.266;10.410;2023-12-07T00:27:32;53.80;;;24.23;;
10509;SDS011;5303;53.266;10.410;2023-12-07T00:29:57;47.43;;;24.40;;
10509;SDS011;5303;53.266;10.410;2023-12-07T00:32:22;51.53;;;25.43;;
10509;SDS011;5303;53.266;10.410;2023-12-07T00:34:47;47.07;;;23.33;;
10509;SDS011;5303;53.266;10.410;2023-12-07T00:37:14;50.57;;;24.63;;
10509;SDS011;5303;53.266;10.410;2023-12-07T00:39:40;55.90;;;25.83;;
10509;SDS011;5303;53.266;10.410;2023-12-07T00:42:06;50.70;;;24.17;;
10509;SDS011;5303;53.266;10.410;2023-12-07T00:44:31;52.17;;;23.67;;
10509;SDS011;5303;53.266;10.410;2023-12-07T00:46:56;49.47;;;24.07;;
10509;SDS011;5303;53.266;10.410;2023-12-07T00:49:21;53.67;;;25.10;;
10509;SDS011;5303;53.266;10.410;2023-12-07T00:51:47;50.57;;;24.80;;
10509;SDS011;5303;53.266;10.410;2023-12-07T00:54:12;50.67;;;26.80;;
10509;SDS011;5303;53.266;10.410;2023-12-07T00:56:38;48.73;;;24.07;;
10509;SDS011;5303;53.266;10.410;2023-12-07T00:59:03;50.07;;;24.33;;
10509;SDS011;5303;53.266;10.410;2023-12-07T01:01:29;48.60;;;21.83;;
10509;SDS011;5303;53.266;10.410;2023-12-07T01:03:54;53.33;;;24.37;;
10509;SDS011;5303;53.266;10.410;2023-12-07T01:06:19;54.00;;;25.20;;
10509;SDS011;5303;53.266;10.410;2023-12-07T01:08:45;52.37;;;25.30;;
10509;SDS011;5303;53.266;10.410;2023-12-07T01:11:10;51.97;;;23.83;;
10509;SDS011;5303;53.266;10.410;2023-12-07T01:13:35;49.80;;;23.97;;
10509;SDS011;5303;53.266;10.410;2023-12-07T01:16:01;51.87;;;24.23;;
10509;SDS011;5303;53.266;10.410;2023-12-07T01:18:26;45.57;;;22.53;;
10509;SDS011;5303;53.266;10.410;2023-12-07T01:20:51;51.50;;;23.60;;
10509;SDS011;5303;53.266;10.410;2023-12-07T01:23:17;53.87;;;25.27;;
10509;SDS011;5303;53.266;10.410;2023-12-07T01:25:42;47.13;;;24.07;;
10509;SDS011;5303;53.266;10.410;2023-12-07T01:28:07;48.33;;;24.23;;
10509;SDS011;5303;53.266;10.410;2023-12-07T01:30:32;50.43;;;24.00;;
10509;SDS011;5303;53.266;10.410;2023-12-07T01:32:58;50.27;;;24.43;;
10509;SDS011;5303;53.266;10.410;2023-12-07T01:35:23;48.23;;;22.30;;
10509;SDS011;5303;53.266;10.410;2023-12-07T01:37:48;50.20;;;24.07;;
10509;SDS011;5303;53.266;10.410;2023-12-07T01:40:14;50.47;;;24.23;;
10509;SDS011;5303;53.266;10.410;2023-12-07T01:42:40;48.07;;;23.40;;
10509;SDS011;5303;53.266;10.410;2023-12-07T01:45:06;46.00;;;23.07;;
10509;SDS011;5303;53.266;10.410;2023-12-07T01:47:32;49.20;;;23.47;;
10509;SDS011;5303;53.266;10.410;2023-12-07T01:50:00;42.73;;;23.20;;
10509;SDS011;5303;53.266;10.410;2023-12-07T01:52:26;40.93;;;21.43;;
10509;SDS011;5303;53.266;10.410;2023-12-07T01:54:54;41.40;;;21.40;;
10509;SDS011;5303;53.266;10.410;2023-12-07T01:57:19;44.27;;;22.53;;
10509;SDS011;5303;53.266;10.410;2023-12-07T01:59:45;45.13;;;23.23;;
10509;SDS011;5303;53.266;10.410;2023-12-07T02:02:10;43.80;;;22.43;;
10509;SDS011;5303;53.266;10.410;2023-12-07T02:04:36;49.63;;;25.10;;
10509;SDS011;5303;53.266;10.410;2023-12-07T02:07:02;45.27;;;23.73;;
10509;SDS011;5303;53.266;10.410;2023-12-07T02:09:28;49.23;;;23.87;;
10509;SDS011;5303;53.266;10.410;2023-12-07T02:11:54;46.97;;;24.07;;
10509;SDS011;5303;53.266;10.410;2023-12-07T02:14:19;44.93;;;24.53;;
10509;SDS011;5303;53.266;10.410;2023-12-07T02:16:45;46.97;;;23.97;;
10509;SDS011;5303;53.266;10.410;2023-12-07T02:21:47;46.60;;;23.57;;
10509;SDS011;5303;53.266;10.410;2023-12-07T02:24:21;51.33;;;25.17;;
10509;SDS011;5303;53.266;10.410;2023-12-07T02:26:47;46.83;;;23.50;;
10509;SDS011;5303;53.266;10.410;2023-12-07T02:29:13;52.37;;;25.00;;
10509;SDS011;5303;53.266;10.410;2023-12-07T02:31:38;55.23;;;26.70;;
10509;SDS011;5303;53.266;10.410;2023-12-07T02:34:04;54.30;;;27.40;;
10509;SDS011;5303;53.266;10.410;2023-12-07T02:36:29;56.30;;;26.17;;
10509;SDS011;5303;53.266;10.410;2023-12-07T02:38:58;55.10;;;25.17;;
10509;SDS011;5303;53.266;10.410;2023-12-07T02:41:26;57.10;;;26.83;;
10509;SDS011;5303;53.266;10.410;2023-12-07T02:43:53;54.47;;;25.53;;
10509;SDS011;5303;53.266;10.410;2023-12-07T02:46:19;57.77;;;26.93;;
10509;SDS011;5303;53.266;10.410;2023-12-07T02:48:44;56.03;;;26.47;;
10509;SDS011;5303;53.266;10.410;2023-12-07T02:51:09;54.10;;;25.57;;
10509;SDS011;5303;53.266;10.410;2023-12-07T02:53:35;54.17;;;25.33;;
10509;SDS011;5303;53.266;10.410;2023-12-07T02:56:00;58.50;;;25.40;;
10509;SDS011;5303;53.266;10.410;2023-12-07T02:58:25;61.23;;;27.33;;
10509;SDS011;5303;53.266;10.410;2023-12-07T03:00:50;58.27;;;25.63;;
10509;SDS011;5303;53.266;10.410;2023-12-07T03:03:16;61.97;;;26.30;;
10509;SDS011;5303;53.266;10.410;2023-12-07T03:05:41;78.30;;;29.67;;
10509;SDS011;5303;53.266;10.410;2023-12-07T03:08:06;65.80;;;26.73;;
10509;SDS011;5303;53.266;10.410;2023-12-07T03:10:32;56.60;;;26.03;;
10509;SDS011;5303;53.266;10.410;2023-12-07T03:12:57;60.33;;;25.47;;
10509;SDS011;5303;53.266;10.410;2023-12-07T03:15:22;65.47;;;26.27;;
10509;SDS011;5303;53.266;10.410;2023-12-07T03:17:48;64.67;;;25.57;;
10509;SDS011;5303;53.266;10.410;2023-12-07T03:20:14;59.93;;;25.00;;
10509;SDS011;5303;53.266;10.410;2023-12-07T03:22:40;72.47;;;27.77;;
10509;SDS011;5303;53.266;10.410;2023-12-07T03:25:05;67.80;;;26.77;;
10509;SDS011;5303;53.266;10.410;2023-12-07T03:27:30;66.23;;;25.73;;
10509;SDS011;5303;53.266;10.410;2023-12-07T03:29:56;69.70;;;26.57;;
10509;SDS011;5303;53.266;10.410;2023-12-07T03:32:21;71.00;;;25.57;;
10509;SDS011;5303;53.266;10.410;2023-12-07T03:34:46;69.57;;;26.37;;
10509;SDS011;5303;53.266;10.410;2023-12-07T03:37:12;70.33;;;26.77;;
10509;SDS011;5303;53.266;10.410;2023-12-07T03:39:37;68.57;;;27.20;;
10509;SDS011;5303;53.266;10.410;2023-12-07T03:42:02;65.47;;;25.97;;
10509;SDS011;5303;53.266;10.410;2023-12-07T03:44:28;69.50;;;27.40;;
10509;SDS011;5303;53.266;10.410;2023-12-07T03:46:53;72.40;;;25.03;;
10509;SDS011;5303;53.266;10.410;2023-12-07T03:49:19;80.23;;;28.67;;
10509;SDS011;5303;53.266;10.410;2023-12-07T03:51:44;75.27;;;27.60;;
10509;SDS011;5303;53.266;10.410;2023-12-07T03:54:09;59.00;;;26.40;;
10509;SDS011;5303;53.266;10.410;2023-12-07T03:56:34;64.10;;;25.90;;
10509;SDS011;5303;53.266;10.410;2023-12-07T03:59:00;67.93;;;27.03;;
10509;SDS011;5303;53.266;10.410;2023-12-07T04:01:26;67.73;;;27.43;;
10509;SDS011;5303;53.266;10.410;2023-12-07T04:03:52;66.10;;;26.73;;
10509;SDS011;5303;53.266;10.410;2023-12-07T04:06:19;60.60;;;25.87;;
10509;SDS011;5303;53.266;10.410;2023-12-07T04:08:45;69.83;;;27.47;;
10509;SDS011;5303;53.266;10.410;2023-12-07T04:11:11;62.07;;;26.67;;
10509;SDS011;5303;53.266;10.410;2023-12-07T04:13:37;67.20;;;27.57;;
10509;SDS011;5303;53.266;10.410;2023-12-07T04:16:02;67.87;;;27.07;;
10509;SDS011;5303;53.266;10.410;2023-12-07T04:18:28;67.90;;;26.77;;
10509;SDS011;5303;53.266;10.410;2023-12-07T04:20:53;68.47;;;28.17;;
10509;SDS011;5303;53.266;10.410;2023-12-07T04:23:19;71.47;;;27.37;;
10509;SDS011;5303;53.266;10.410;2023-12-07T04:25:44;66.87;;;27.97;;
10509;SDS011;5303;53.266;10.410;2023-12-07T04:28:09;58.17;;;26.77;;
10509;SDS011;5303;53.266;10.410;2023-12-07T04:30:38;64.93;;;26.83;;
10509;SDS011;5303;53.266;10.410;2023-12-07T04:33:08;64.90;;;26.27;;
10509;SDS011;5303;53.266;10.410;2023-12-07T04:35:34;68.80;;;30.90;;
10509;SDS011;5303;53.266;10.410;2023-12-07T04:38:00;62.67;;;27.90;;
10509;SDS011;5303;53.266;10.410;2023-12-07T04:40:26;59.43;;;25.63;;
10509;SDS011;5303;53.266;10.410;2023-12-07T04:42:51;65.03;;;28.13;;
10509;SDS011;5303;53.266;10.410;2023-12-07T04:45:17;56.60;;;26.47;;
10509;SDS011;5303;53.266;10.410;2023-12-07T04:47:42;59.30;;;27.13;;
10509;SDS011;5303;53.266;10.410;2023-12-07T04:50:07;58.93;;;26.13;;
10509;SDS011;5303;53.266;10.410;2023-12-07T04:52:34;63.13;;;29.27;;
10509;SDS011;5303;53.266;10.410;2023-12-07T04:55:00;57.47;;;26.13;;
10509;SDS011;5303;53.266;10.410;2023-12-07T04:57:25;54.00;;;27.03;;
10509;SDS011;5303;53.266;10.410;2023-12-07T04:59:50;62.37;;;28.70;;
10509;SDS011;5303;53.266;10.410;2023-12-07T05:02:16;62.33;;;28.23;;
10509;SDS011;5303;53.266;10.410;2023-12-07T05:04:42;63.87;;;27.37;;
10509;SDS011;5303;53.266;10.410;2023-12-07T05:07:08;68.43;;;29.80;;
10509;SDS011;5303;53.266;10.410;2023-12-07T05:09:34;67.63;;;29.83;;
10509;SDS011;5303;53.266;10.410;2023-12-07T05:11:59;66.47;;;28.07;;
10509;SDS011;5303;53.266;10.410;2023-12-07T05:14:24;65.50;;;29.87;;
10509;SDS011;5303;53.266;10.410;2023-12-07T05:16:50;62.90;;;28.23;;
10509;SDS011;5303;53.266;10.410;2023-12-07T05:19:20;71.30;;;28.87;;
10509;SDS011;5303;53.266;10.410;2023-12-07T05:21:46;67.27;;;29.37;;
10509;SDS011;5303;53.266;10.410;2023-12-07T05:24:12;57.90;;;28.13;;
10509;SDS011;5303;53.266;10.410;2023-12-07T05:26:37;61.97;;;29.30;;
10509;SDS011;5303;53.266;10.410;2023-12-07T05:29:02;60.53;;;28.30;;
10509;SDS011;5303;53.266;10.410;2023-12-07T05:31:28;63.60;;;29.17;;
10509;SDS011;5303;53.266;10.410;2023-12-07T05:33:53;70.60;;;30.07;;
10509;SDS011;5303;53.266;10.410;2023-12-07T05:36:18;60.97;;;29.07;;
10509;SDS011;5303;53.266;10.410;2023-12-07T05:38:43;59.37;;;27.70;;
10509;SDS011;5303;53.266;10.410;2023-12-07T05:41:09;60.70;;;28.53;;
10509;SDS011;5303;53.266;10.410;2023-12-07T05:43:34;55.87;;;27.03;;
10509;SDS011;5303;53.266;10.410;2023-12-07T05:45:59;60.93;;;28.07;;
10509;SDS011;5303;53.266;10.410;2023-12-07T05:48:25;58.90;;;27.37;;
10509;SDS011;5303;53.266;10.410;2023-12-07T05:50:50;59.73;;;28.17;;
10509;SDS011;5303;53.266;10.410;2023-12-07T05:53:15;60.20;;;27.53;;
10509;SDS011;5303;53.266;10.410;2023-12-07T05:55:41;59.73;;;27.37;;
10509;SDS011;5303;53.266;10.410;2023-12-07T05:58:06;64.40;;;30.30;;
10509;SDS011;5303;53.266;10.410;2023-12-07T06:00:31;60.80;;;28.33;;
10509;SDS011;5303;53.266;10.410;2023-12-07T06:02:58;56.17;;;26.27;;
10509;SDS011;5303;53.266;10.410;2023-12-07T06:05:24;60.03;;;27.23;;
10509;SDS011;5303;53.266;10.410;2023-12-07T06:07:49;58.70;;;26.67;;
10509;SDS011;5303;53.266;10.410;2023-12-07T06:10:14;61.00;;;26.60;;
10509;SDS011;5303;53.266;10.410;2023-12-07T06:12:40;65.57;;;28.47;;
10509;SDS011;5303;53.266;10.410;2023-12-07T06:15:05;62.20;;;27.93;;
10509;SDS011;5303;53.266;10.410;2023-12-07T06:17:32;61.73;;;26.50;;
10509;SDS011;5303;53.266;10.410;2023-12-07T06:19:59;62.33;;;27.00;;
10509;SDS011;5303;53.266;10.410;2023-12-07T06:22:24;68.17;;;27.43;;
10509;SDS011;5303;53.266;10.410;2023-12-07T06:24:49;64.10;;;27.43;;
10509;SDS011;5303;53.266;10.410;2023-12-07T06:27:15;65.07;;;28.53;;
10509;SDS011;5303;53.266;10.410;2023-12-07T06:29:40;66.27;;;30.13;;
10509;SDS011;5303;53.266;10.410;2023-12-07T06:32:05;63.00;;;26.90;;
10509;SDS011;5303;53.266;10.410;2023-12-07T06:34:31;66.27;;;28.67;;
10509;SDS011;5303;53.266;10.410;2023-12-07T06:36:56;63.47;;;27.63;;
10509;SDS011;5303;53.266;10.410;2023-12-07T06:39:21;64.57;;;29.23;;
10509;SDS011;5303;53.266;10.410;2023-12-07T06:41:47;67.10;;;29.70;;
10509;SDS011;5303;53.266;10.410;2023-12-07T06:44:12;63.90;;;29.80;;
10509;SDS011;5303;53.266;10.410;2023-12-07T06:46:37;69.67;;;29.57;;
10509;SDS011;5303;53.266;10.410;2023-12-07T06:49:03;63.87;;;28.03;;
10509;SDS011;5303;53.266;10.410;2023-12-07T06:51:28;60.53;;;29.03;;
10509;SDS011;5303;53.266;10.410;2023-12-07T06:53:53;70.57;;;30.50;;
10509;SDS011;5303;53.266;10.410;2023-12-07T06:56:19;61.87;;;29.17;;
10509;SDS011;5303;53.266;10.410;2023-12-07T06:58:44;66.20;;;30.60;;
10509;SDS011;5303;53.266;10.410;2023-12-07T07:01:09;65.20;;;28.37;;
10509;SDS011;5303;53.266;10.410;2023-12-07T07:03:37;59.57;;;28.90;;
10509;SDS011;5303;53.266;10.410;2023-12-07T07:06:03;59.03;;;27.30;;
10509;SDS011;5303;53.266;10.410;2023-12-07T07:08:28;56.27;;;28.27;;
10509;SDS011;5303;53.266;10.410;2023-12-07T07:10:53;58.17;;;28.73;;
10509;SDS011;5303;53.266;10.410;2023-12-07T07:13:19;60.23;;;28.63;;
10509;SDS011;5303;53.266;10.410;2023-12-07T07:15:45;67.73;;;29.47;;
10509;SDS011;5303;53.266;10.410;2023-12-07T07:18:10;57.83;;;28.83;;
10509;SDS011;5303;53.266;10.410;2023-12-07T07:20:36;63.47;;;30.20;;
10509;SDS011;5303;53.266;10.410;2023-12-07T07:23:01;61.30;;;29.17;;
10509;SDS011;5303;53.266;10.410;2023-12-07T07:25:26;59.43;;;28.67;;
10509;SDS011;5303;53.266;10.410;2023-12-07T07:27:52;53.73;;;26.90;;
10509;SDS011;5303;53.266;10.410;2023-12-07T07:30:19;56.17;;;28.53;;
10509;SDS011;5303;53.266;10.410;2023-12-07T07:32:45;55.53;;;28.43;;
10509;SDS011;5303;53.266;10.410;2023-12-07T07:35:10;58.03;;;28.13;;
10509;SDS011;5303;53.266;10.410;2023-12-07T07:37:37;58.17;;;29.73;;
10509;SDS011;5303;53.266;10.410;2023-12-07T07:40:03;60.00;;;29.03;;
10509;SDS011;5303;53.266;10.410;2023-12-07T07:42:31;56.93;;;28.63;;
10509;SDS011;5303;53.266;10.410;2023-12-07T07:44:59;53.53;;;28.00;;
10509;SDS011;5303;53.266;10.410;2023-12-07T07:47:24;55.10;;;29.60;;
10509;SDS011;5303;53.266;10.410;2023-12-07T07:49:50;52.23;;;29.00;;
10509;SDS011;5303;53.266;10.410;2023-12-07T07:52:15;55.37;;;29.60;;
10509;SDS011;5303;53.266;10.410;2023-12-07T07:54:40;50.93;;;27.47;;
10509;SDS011;5303;53.266;10.410;2023-12-07T07:57:06;49.77;;;26.97;;
10509;SDS011;5303;53.266;10.410;2023-12-07T07:59:31;48.70;;;27.70;;
10509;SDS011;5303;53.266;10.410;2023-12-07T08:01:56;53.00;;;27.90;;
10509;SDS011;5303;53.266;10.410;2023-12-07T08:04:22;53.27;;;27.90;;
10509;SDS011;5303;53.266;10.410;2023-12-07T08:06:47;56.70;;;30.00;;
10509;SDS011;5303;53.266;10.410;2023-12-07T08:09:12;47.90;;;27.97;;
10509;SDS011;5303;53.266;10.410;2023-12-07T08:11:38;53.47;;;29.00;;
10509;SDS011;5303;53.266;10.410;2023-12-07T08:14:03;51.87;;;28.00;;
10509;SDS011;5303;53.266;10.410;2023-12-07T08:16:28;56.30;;;28.50;;
10509;SDS011;5303;53.266;10.410;2023-12-07T08:18:54;54.00;;;29.63;;
10509;SDS011;5303;53.266;10.410;2023-12-07T08:21:20;54.33;;;28.57;;
10509;SDS011;5303;53.266;10.410;2023-12-07T08:23:49;55.47;;;28.97;;
10509;SDS011;5303;53.266;10.410;2023-12-07T08:26:14;52.73;;;29.00;;
10509;SDS011;5303;53.266;10.410;2023-12-07T08:28:41;51.00;;;27.10;;
10509;SDS011;5303;53.266;10.410;2023-12-07T08:31:06;51.30;;;27.60;;
10509;SDS011;5303;53.266;10.410;2023-12-07T08:33:32;50.53;;;27.50;;
10509;SDS011;5303;53.266;10.410;2023-12-07T08:35:59;51.20;;;27.30;;
10509;SDS011;5303;53.266;10.410;2023-12-07T08:38:24;50.83;;;27.03;;
10509;SDS011;5303;53.266;10.410;2023-12-07T08:40:50;48.03;;;26.23;;
10509;SDS011;5303;53.266;10.410;2023-12-07T08:43:15;52.23;;;28.07;;
10509;SDS011;5303;53.266;10.410;2023-12-07T08:45:40;49.93;;;25.77;;
10509;SDS011;5303;53.266;10.410;2023-12-07T08:48:06;49.93;;;26.60;;
10509;SDS011;5303;53.266;10.410;2023-12-07T08:50:31;54.10;;;30.07;;
10509;SDS011;5303;53.266;10.410;2023-12-07T08:52:56;51.97;;;28.50;;
10509;SDS011;5303;53.266;10.410;2023-12-07T08:55:21;45.27;;;26.17;;
10509;SDS011;5303;53.266;10.410;2023-12-07T08:57:47;50.73;;;27.10;;
10509;SDS011;5303;53.266;10.410;2023-12-07T09:00:12;44.63;;;25.57;;
10509;SDS011;5303;53.266;10.410;2023-12-07T09:02:38;44.80;;;25.80;;
10509;SDS011;5303;53.266;10.410;2023-12-07T09:05:03;50.43;;;28.50;;
10509;SDS011;5303;53.266;10.410;2023-12-07T09:07:29;46.00;;;25.17;;
10509;SDS011;5303;53.266;10.410;2023-12-07T09:09:54;47.93;;;25.40;;
10509;SDS011;5303;53.266;10.410;2023-12-07T09:12:19;47.73;;;25.63;;
10509;SDS011;5303;53.266;10.410;2023-12-07T09:14:44;47.87;;;26.50;;
10509;SDS011;5303;53.266;10.410;2023-12-07T09:17:10;51.10;;;28.37;;
10509;SDS011;5303;53.266;10.410;2023-12-07T09:19:35;45.03;;;25.43;;
10509;SDS011;5303;53.266;10.410;2023-12-07T09:22:00;46.17;;;26.63;;
10509;SDS011;5303;53.266;10.410;2023-12-07T09:24:26;44.43;;;25.10;;
10509;SDS011;5303;53.266;10.410;2023-12-07T09:26:51;46.37;;;27.07;;
10509;SDS011;5303;53.266;10.410;2023-12-07T09:29:17;43.40;;;25.60;;
10509;SDS011;5303;53.266;10.410;2023-12-07T09:31:42;46.83;;;26.90;;
10509;SDS011;5303;53.266;10.410;2023-12-07T09:34:07;46.03;;;27.50;;
10509;SDS011;5303;53.266;10.410;2023-12-07T09:36:33;44.43;;;26.23;;
10509;SDS011;5303;53.266;10.410;2023-12-07T09:38:59;45.50;;;27.00;;
10509;SDS011;5303;53.266;10.410;2023-12-07T09:41:24;45.10;;;26.07;;
10509;SDS011;5303;53.266;10.410;2023-12-07T09:43:52;43.03;;;26.13;;
10509;SDS011;5303;53.266;10.410;2023-12-07T09:46:18;44.00;;;26.30;;
10509;SDS011;5303;53.266;10.410;2023-12-07T09:48:44;47.60;;;26.57;;
10509;SDS011;5303;53.266;10.410;2023-12-07T09:51:10;44.50;;;26.17;;
10509;SDS011;5303;53.266;10.410;2023-12-07T09:53:36;42.90;;;25.67;;
10509;SDS011;5303;53.266;10.410;2023-12-07T09:56:03;45.30;;;26.20;;
10509;SDS011;5303;53.266;10.410;2023-12-07T09:58:28;48.53;;;27.73;;
10509;SDS011;5303;53.266;10.410;2023-12-07T10:00:54;53.40;;;28.73;;
10509;SDS011;5303;53.266;10.410;2023-12-07T10:03:21;47.60;;;27.80;;
10509;SDS011;5303;53.266;10.410;2023-12-07T10:05:57;52.70;;;29.07;;
10509;SDS011;5303;53.266;10.410;2023-12-07T10:08:25;47.70;;;25.90;;
10509;SDS011;5303;53.266;10.410;2023-12-07T10:11:01;45.80;;;26.93;;
10509;SDS011;5303;53.266;10.410;2023-12-07T10:13:28;47.40;;;26.27;;
10509;SDS011;5303;53.266;10.410;2023-12-07T10:16:13;48.07;;;27.90;;
10509;SDS011;5303;53.266;10.410;2023-12-07T10:18:40;47.17;;;27.07;;
10509;SDS011;5303;53.266;10.410;2023-12-07T10:21:09;48.97;;;28.40;;
10509;SDS011;5303;53.266;10.410;2023-12-07T10:23:37;49.47;;;26.50;;
10509;SDS011;5303;53.266;10.410;2023-12-07T10:26:05;46.40;;;27.83;;
10509;SDS011;5303;53.266;10.410;2023-12-07T10:28:31;48.20;;;27.80;;
10509;SDS011;5303;53.266;10.410;2023-12-07T10:30:58;43.90;;;26.73;;
10509;SDS011;5303;53.266;10.410;2023-12-07T10:33:25;43.20;;;26.90;;
10509;SDS011;5303;53.266;10.410;2023-12-07T10:35:50;45.17;;;27.53;;
10509;SDS011;5303;53.266;10.410;2023-12-07T10:38:16;44.20;;;26.53;;
10509;SDS011;5303;53.266;10.410;2023-12-07T10:40:42;42.47;;;26.90;;
10509;SDS011;5303;53.266;10.410;2023-12-07T10:43:08;43.60;;;27.23;;
10509;SDS011;5303;53.266;10.410;2023-12-07T10:45:34;37.20;;;23.37;;
10509;SDS011;5303;53.266;10.410;2023-12-07T10:48:02;38.53;;;25.03;;
10509;SDS011;5303;53.266;10.410;2023-12-07T10:50:30;41.93;;;25.73;;
10509;SDS011;5303;53.266;10.410;2023-12-07T10:52:59;43.50;;;25.70;;
10509;SDS011;5303;53.266;10.410;2023-12-07T10:55:33;39.40;;;25.13;;
10509;SDS011;5303;53.266;10.410;2023-12-07T10:58:08;39.40;;;26.13;;
10509;SDS011;5303;53.266;10.410;2023-12-07T11:00:35;41.47;;;26.53;;
10509;SDS011;5303;53.266;10.410;2023-12-07T11:03:01;41.20;;;25.70;;
10509;SDS011;5303;53.266;10.410;2023-12-07T11:05:27;40.73;;;25.10;;
10509;SDS011;5303;53.266;10.410;2023-12-07T11:07:57;36.73;;;23.30;;
10509;SDS011;5303;53.266;10.410;2023-12-07T11:10:50;33.23;;;22.33;;
10509;SDS011;5303;53.266;10.410;2023-12-07T11:13:31;34.13;;;21.37;;
10509;SDS011;5303;53.266;10.410;2023-12-07T11:16:00;35.43;;;23.43;;
10509;SDS011;5303;53.266;10.410;2023-12-07T11:18:25;35.10;;;22.47;;
10509;SDS011;5303;53.266;10.410;2023-12-07T11:20:52;34.77;;;22.27;;
10509;SDS011;5303;53.266;10.410;2023-12-07T11:23:18;35.93;;;22.00;;
10509;SDS011;5303;53.266;10.410;2023-12-07T11:25:44;36.27;;;22.37;;
10509;SDS011;5303;53.266;10.410;2023-12-07T11:28:10;37.50;;;23.87;;
10509;SDS011;5303;53.266;10.410;2023-12-07T11:30:37;34.97;;;24.10;;
10509;SDS011;5303;53.266;10.410;2023-12-07T11:33:03;34.50;;;23.53;;
10509;SDS011;5303;53.266;10.410;2023-12-07T11:35:29;31.40;;;20.90;;
10509;SDS011;5303;53.266;10.410;2023-12-07T11:40:31;30.60;;;21.47;;
10509;SDS011;5303;53.266;10.410;2023-12-07T11:43:05;31.57;;;21.50;;
10509;SDS011;5303;53.266;10.410;2023-12-07T11:45:40;32.80;;;21.63;;
10509;SDS011;5303;53.266;10.410;2023-12-07T11:50:36;31.53;;;20.63;;
10509;SDS011;5303;53.266;10.410;2023-12-07T11:53:19;32.97;;;22.03;;
10509;SDS011;5303;53.266;10.410;2023-12-07T11:55:49;29.80;;;20.30;;
10509;SDS011;5303;53.266;10.410;2023-12-07T11:58:14;29.20;;;18.97;;
10509;SDS011;5303;53.266;10.410;2023-12-07T12:00:39;28.40;;;19.80;;
10509;SDS011;5303;53.266;10.410;2023-12-07T12:03:05;29.33;;;19.23;;
10509;SDS011;5303;53.266;10.410;2023-12-07T12:05:31;26.57;;;18.27;;
10509;SDS011;5303;53.266;10.410;2023-12-07T12:07:56;33.37;;;21.60;;
10509;SDS011;5303;53.266;10.410;2023-12-07T12:10:21;33.53;;;22.33;;
10509;SDS011;5303;53.266;10.410;2023-12-07T12:12:50;28.93;;;20.33;;
10509;SDS011;5303;53.266;10.410;2023-12-07T12:15:15;28.33;;;20.23;;
10509;SDS011;5303;53.266;10.410;2023-12-07T12:17:41;29.77;;;19.50;;
10509;SDS011;5303;53.266;10.410;2023-12-07T12:20:07;29.07;;;19.87;;
10509;SDS011;5303;53.266;10.410;2023-12-07T12:22:36;31.87;;;21.83;;
10509;SDS011;5303;53.266;10.410;2023-12-07T12:25:01;27.03;;;19.33;;
10509;SDS011;5303;53.266;10.410;2023-12-07T12:27:27;32.13;;;20.50;;
10509;SDS011;5303;53.266;10.410;2023-12-07T12:29:53;31.20;;;22.13;;
10509;SDS011;5303;53.266;10.410;2023-12-07T12:32:19;30.50;;;20.83;;
10509;SDS011;5303;53.266;10.410;2023-12-07T12:34:50;29.57;;;20.53;;
10509;SDS011;5303;53.266;10.410;2023-12-07T12:37:16;30.37;;;20.07;;
10509;SDS011;5303;53.266;10.410;2023-12-07T12:39:41;32.40;;;22.73;;
10509;SDS011;5303;53.266;10.410;2023-12-07T12:42:06;29.23;;;19.87;;
10509;SDS011;5303;53.266;10.410;2023-12-07T12:44:31;28.33;;;19.73;;
10509;SDS011;5303;53.266;10.410;2023-12-07T12:46:57;26.73;;;19.13;;
10509;SDS011;5303;53.266;10.410;2023-12-07T12:49:22;29.77;;;20.80;;
10509;SDS011;5303;53.266;10.410;2023-12-07T12:51:47;29.47;;;20.20;;
10509;SDS011;5303;53.266;10.410;2023-12-07T12:54:14;38.27;;;24.43;;
10509;SDS011;5303;53.266;10.410;2023-12-07T12:56:39;35.00;;;26.98;;
10509;SDS011;5303;53.266;10.410;2023-12-07T12:59:05;36.47;;;25.07;;
10509;SDS011;5303;53.266;10.410;2023-12-07T13:01:31;51.63;;;30.00;;
10509;SDS011;5303;53.266;10.410;2023-12-07T13:03:57;39.27;;;25.00;;
10509;SDS011;5303;53.266;10.410;2023-12-07T13:06:22;33.57;;;23.10;;
10509;SDS011;5303;53.266;10.410;2023-12-07T13:08:48;32.83;;;22.50;;
10509;SDS011;5303;53.266;10.410;2023-12-07T13:11:16;31.17;;;21.47;;
10509;SDS011;5303;53.266;10.410;2023-12-07T13:13:42;37.20;;;23.77;;
10509;SDS011;5303;53.266;10.410;2023-12-07T13:16:08;42.07;;;24.90;;
10509;SDS011;5303;53.266;10.410;2023-12-07T13:18:33;37.80;;;23.50;;
10509;SDS011;5303;53.266;10.410;2023-12-07T13:20:59;43.07;;;25.03;;
10509;SDS011;5303;53.266;10.410;2023-12-07T13:23:24;36.43;;;23.23;;
10509;SDS011;5303;53.266;10.410;2023-12-07T13:25:50;32.27;;;21.27;;
10509;SDS011;5303;53.266;10.410;2023-12-07T13:28:16;29.80;;;21.43;;
10509;SDS011;5303;53.266;10.410;2023-12-07T13:30:41;29.23;;;19.77;;
10509;SDS011;5303;53.266;10.410;2023-12-07T13:33:06;27.60;;;18.97;;
10509;SDS011;5303;53.266;10.410;2023-12-07T13:35:34;29.07;;;19.23;;
10509;SDS011;5303;53.266;10.410;2023-12-07T13:37:59;28.13;;;19.87;;
10509;SDS011;5303;53.266;10.410;2023-12-07T13:40:25;30.63;;;21.43;;
10509;SDS011;5303;53.266;10.410;2023-12-07T13:42:51;30.20;;;20.40;;
10509;SDS011;5303;53.266;10.410;2023-12-07T13:45:17;32.03;;;21.40;;
10509;SDS011;5303;53.266;10.410;2023-12-07T13:47:42;30.23;;;20.30;;
10509;SDS011;5303;53.266;10.410;2023-12-07T13:50:09;32.40;;;21.07;;
10509;SDS011;5303;53.266;10.410;2023-12-07T13:52:36;36.60;;;23.47;;
10509;SDS011;5303;53.266;10.410;2023-12-07T13:55:02;34.80;;;21.83;;
10509;SDS011;5303;53.266;10.410;2023-12-07T13:57:27;34.10;;;21.10;;
10509;SDS011;5303;53.266;10.410;2023-12-07T13:59:55;34.17;;;21.57;;
10509;SDS011;5303;53.266;10.410;2023-12-07T14:02:21;30.10;;;20.27;;
10509;SDS011;5303;53.266;10.410;2023-12-07T14:04:46;30.07;;;20.13;;
10509;SDS011;5303;53.266;10.410;2023-12-07T14:07:17;37.57;;;23.87;;
10509;SDS011;5303;53.266;10.410;2023-12-07T14:09:44;34.57;;;22.43;;
10509;SDS011;5303;53.266;10.410;2023-12-07T14:12:11;33.10;;;21.53;;
10509;SDS011;5303;53.266;10.410;2023-12-07T14:14:39;32.83;;;20.97;;
10509;SDS011;5303;53.266;10.410;2023-12-07T14:17:04;32.40;;;20.33;;
10509;SDS011;5303;53.266;10.410;2023-12-07T14:19:30;32.33;;;21.97;;
10509;SDS011;5303;53.266;10.410;2023-12-07T14:21:55;32.83;;;20.23;;